sensor_id;sensor_type;location;lat;lon;timestamp;P1;durP1;ratioP1;P2;durP2;ratioP2
73168;SDS011;61379;59.732;30.468;2023-05-20T00:01:36;9.65;;;6.90;;
73168;SDS011;61379;59.732;30.468;2023-05-20T00:04:03;10.43;;;6.88;;
73168;SDS011;61379;59.732;30.468;2023-05-20T00:06:30;8.88;;;7.18;;
73168;SDS011;61379;59.732;30.468;2023-05-20T00:08:58;9.25;;;7.18;;
73168;SDS011;61379;59.732;30.468;2023-05-20T00:11:25;8.65;;;7.75;;
73168;SDS011;61379;59.732;30.468;2023-05-20T00:13:51;8.55;;;7.82;;
73168;SDS011;61379;59.732;30.468;2023-05-20T00:16:18;8.27;;;7.55;;
73168;SDS011;61379;59.732;30.468;2023-05-20T00:18:46;8.40;;;6.97;;
73168;SDS011;61379;59.732;30.468;2023-05-20T00:21:13;9.15;;;6.82;;
73168;SDS011;61379;59.732;30.468;2023-05-20T00:23:40;10.57;;;6.70;;
73168;SDS011;61379;59.732;30.468;2023-05-20T00:26:06;9.40;;;6.47;;
73168;SDS011;61379;59.732;30.468;2023-05-20T00:28:33;8.35;;;6.55;;
73168;SDS011;61379;59.732;30.468;2023-05-20T00:31:00;10.98;;;7.18;;
73168;SDS011;61379;59.732;30.468;2023-05-20T00:33:26;8.48;;;6.43;;
73168;SDS011;61379;59.732;30.468;2023-05-20T00:35:54;9.45;;;6.65;;
73168;SDS011;61379;59.732;30.468;2023-05-20T00:38:21;8.50;;;6.72;;
73168;SDS011;61379;59.732;30.468;2023-05-20T00:40:48;10.00;;;7.07;;
73168;SDS011;61379;59.732;30.468;2023-05-20T00:43:15;9.60;;;7.07;;
73168;SDS011;61379;59.732;30.468;2023-05-20T00:45:42;8.75;;;7.18;;
73168;SDS011;61379;59.732;30.468;2023-05-20T00:48:08;12.95;;;8.27;;
73168;SDS011;61379;59.732;30.468;2023-05-20T00:50:35;9.82;;;8.32;;
73168;SDS011;61379;59.732;30.468;2023-05-20T00:53:03;11.07;;;8.68;;
73168;SDS011;61379;59.732;30.468;2023-05-20T00:55:31;10.35;;;8.65;;
73168;SDS011;61379;59.732;30.468;2023-05-20T00:57:58;9.68;;;8.80;;
73168;SDS011;61379;59.732;30.468;2023-05-20T01:00:25;7.88;;;7.22;;
73168;SDS011;61379;59.732;30.468;2023-05-20T01:02:51;9.77;;;7.40;;
73168;SDS011;61379;59.732;30.468;2023-05-20T01:05:18;8.10;;;7.30;;
73168;SDS011;61379;59.732;30.468;2023-05-20T01:07:45;8.00;;;7.40;;
73168;SDS011;61379;59.732;30.468;2023-05-20T01:10:13;8.65;;;7.75;;
73168;SDS011;61379;59.732;30.468;2023-05-20T01:12:41;8.15;;;7.40;;
73168;SDS011;61379;59.732;30.468;2023-05-20T01:15:09;8.05;;;6.78;;
73168;SDS011;61379;59.732;30.468;2023-05-20T01:17:37;7.43;;;6.47;;
73168;SDS011;61379;59.732;30.468;2023-05-20T01:20:05;12.38;;;7.57;;
73168;SDS011;61379;59.732;30.468;2023-05-20T01:22:37;8.73;;;7.65;;
73168;SDS011;61379;59.732;30.468;2023-05-20T01:25:04;10.85;;;7.65;;
73168;SDS011;61379;59.732;30.468;2023-05-20T01:27:31;10.02;;;7.47;;
73168;SDS011;61379;59.732;30.468;2023-05-20T01:29:58;8.15;;;6.70;;
73168;SDS011;61379;59.732;30.468;2023-05-20T01:32:27;8.50;;;7.60;;
73168;SDS011;61379;59.732;30.468;2023-05-20T01:34:57;7.88;;;7.15;;
73168;SDS011;61379;59.732;30.468;2023-05-20T01:37:25;10.88;;;7.18;;
73168;SDS011;61379;59.732;30.468;2023-05-20T01:39:54;9.15;;;7.63;;
73168;SDS011;61379;59.732;30.468;2023-05-20T01:42:21;8.68;;;7.88;;
73168;SDS011;61379;59.732;30.468;2023-05-20T01:44:48;8.35;;;7.28;;
73168;SDS011;61379;59.732;30.468;2023-05-20T01:47:15;7.70;;;6.88;;
73168;SDS011;61379;59.732;30.468;2023-05-20T01:49:42;8.32;;;7.53;;
73168;SDS011;61379;59.732;30.468;2023-05-20T01:52:10;7.97;;;7.22;;
73168;SDS011;61379;59.732;30.468;2023-05-20T01:54:37;8.80;;;7.13;;
73168;SDS011;61379;59.732;30.468;2023-05-20T01:57:05;7.65;;;6.72;;
73168;SDS011;61379;59.732;30.468;2023-05-20T01:59:32;7.35;;;6.57;;
73168;SDS011;61379;59.732;30.468;2023-05-20T02:01:58;7.00;;;6.30;;
73168;SDS011;61379;59.732;30.468;2023-05-20T02:04:25;8.23;;;6.50;;
73168;SDS011;61379;59.732;30.468;2023-05-20T02:06:52;7.78;;;6.47;;
73168;SDS011;61379;59.732;30.468;2023-05-20T02:09:18;9.23;;;6.95;;
73168;SDS011;61379;59.732;30.468;2023-05-20T02:11:45;8.18;;;6.63;;
73168;SDS011;61379;59.732;30.468;2023-05-20T02:14:13;9.68;;;6.68;;
73168;SDS011;61379;59.732;30.468;2023-05-20T02:16:40;6.97;;;6.38;;
73168;SDS011;61379;59.732;30.468;2023-05-20T02:19:07;8.60;;;7.00;;
73168;SDS011;61379;59.732;30.468;2023-05-20T02:24:03;9.18;;;6.43;;
73168;SDS011;61379;59.732;30.468;2023-05-20T02:26:30;12.45;;;7.05;;
73168;SDS011;61379;59.732;30.468;2023-05-20T02:28:57;9.18;;;6.85;;
73168;SDS011;61379;59.732;30.468;2023-05-20T02:31:25;10.25;;;6.35;;
73168;SDS011;61379;59.732;30.468;2023-05-20T02:33:52;10.68;;;7.13;;
73168;SDS011;61379;59.732;30.468;2023-05-20T02:36:19;7.53;;;6.72;;
73168;SDS011;61379;59.732;30.468;2023-05-20T02:38:45;8.10;;;6.90;;
73168;SDS011;61379;59.732;30.468;2023-05-20T02:41:12;8.07;;;6.97;;
73168;SDS011;61379;59.732;30.468;2023-05-20T02:43:39;8.55;;;6.68;;
73168;SDS011;61379;59.732;30.468;2023-05-20T02:46:05;9.40;;;7.15;;
73168;SDS011;61379;59.732;30.468;2023-05-20T02:48:34;7.57;;;6.88;;
73168;SDS011;61379;59.732;30.468;2023-05-20T02:51:00;7.55;;;6.85;;
73168;SDS011;61379;59.732;30.468;2023-05-20T02:53:27;8.20;;;7.50;;
73168;SDS011;61379;59.732;30.468;2023-05-20T02:55:56;8.07;;;7.28;;
73168;SDS011;61379;59.732;30.468;2023-05-20T02:58:22;8.15;;;7.30;;
73168;SDS011;61379;59.732;30.468;2023-05-20T03:00:50;8.35;;;7.65;;
73168;SDS011;61379;59.732;30.468;2023-05-20T03:03:17;8.50;;;7.63;;
73168;SDS011;61379;59.732;30.468;2023-05-20T03:05:45;8.15;;;7.45;;
73168;SDS011;61379;59.732;30.468;2023-05-20T03:08:12;8.02;;;7.32;;
73168;SDS011;61379;59.732;30.468;2023-05-20T03:10:39;9.43;;;7.90;;
73168;SDS011;61379;59.732;30.468;2023-05-20T03:13:06;8.30;;;7.50;;
73168;SDS011;61379;59.732;30.468;2023-05-20T03:15:34;8.00;;;7.25;;
73168;SDS011;61379;59.732;30.468;2023-05-20T03:18:01;7.85;;;6.97;;
73168;SDS011;61379;59.732;30.468;2023-05-20T03:20:27;7.68;;;6.80;;
73168;SDS011;61379;59.732;30.468;2023-05-20T03:22:55;9.88;;;7.22;;
73168;SDS011;61379;59.732;30.468;2023-05-20T03:25:22;9.05;;;8.18;;
73168;SDS011;61379;59.732;30.468;2023-05-20T03:27:49;9.15;;;7.65;;
73168;SDS011;61379;59.732;30.468;2023-05-20T03:30:16;7.82;;;7.07;;
73168;SDS011;61379;59.732;30.468;2023-05-20T03:32:43;8.38;;;7.20;;
73168;SDS011;61379;59.732;30.468;2023-05-20T03:35:10;7.78;;;6.75;;
73168;SDS011;61379;59.732;30.468;2023-05-20T03:37:37;7.88;;;7.05;;
73168;SDS011;61379;59.732;30.468;2023-05-20T03:40:08;10.30;;;8.43;;
73168;SDS011;61379;59.732;30.468;2023-05-20T03:42:35;8.77;;;7.88;;
73168;SDS011;61379;59.732;30.468;2023-05-20T03:45:03;8.77;;;7.10;;
73168;SDS011;61379;59.732;30.468;2023-05-20T03:47:32;9.75;;;7.10;;
73168;SDS011;61379;59.732;30.468;2023-05-20T03:49:58;9.02;;;7.13;;
73168;SDS011;61379;59.732;30.468;2023-05-20T03:52:25;8.63;;;7.78;;
73168;SDS011;61379;59.732;30.468;2023-05-20T03:54:52;9.98;;;8.27;;
73168;SDS011;61379;59.732;30.468;2023-05-20T03:57:20;8.98;;;8.18;;
73168;SDS011;61379;59.732;30.468;2023-05-20T03:59:47;8.02;;;6.47;;
73168;SDS011;61379;59.732;30.468;2023-05-20T04:02:14;7.60;;;6.90;;
73168;SDS011;61379;59.732;30.468;2023-05-20T04:04:40;7.85;;;7.00;;
73168;SDS011;61379;59.732;30.468;2023-05-20T04:07:07;9.60;;;8.20;;
73168;SDS011;61379;59.732;30.468;2023-05-20T04:09:34;7.45;;;6.82;;
73168;SDS011;61379;59.732;30.468;2023-05-20T04:12:01;7.82;;;6.93;;
73168;SDS011;61379;59.732;30.468;2023-05-20T04:14:29;8.80;;;6.55;;
73168;SDS011;61379;59.732;30.468;2023-05-20T04:16:59;10.73;;;7.05;;
73168;SDS011;61379;59.732;30.468;2023-05-20T04:19:26;9.00;;;7.72;;
73168;SDS011;61379;59.732;30.468;2023-05-20T04:21:52;7.78;;;6.88;;
73168;SDS011;61379;59.732;30.468;2023-05-20T04:24:19;7.57;;;6.88;;
73168;SDS011;61379;59.732;30.468;2023-05-20T04:26:49;7.78;;;7.03;;
73168;SDS011;61379;59.732;30.468;2023-05-20T04:29:16;8.93;;;7.13;;
73168;SDS011;61379;59.732;30.468;2023-05-20T04:31:44;9.32;;;7.55;;
73168;SDS011;61379;59.732;30.468;2023-05-20T04:34:11;7.55;;;5.63;;
73168;SDS011;61379;59.732;30.468;2023-05-20T04:36:38;6.38;;;5.65;;
73168;SDS011;61379;59.732;30.468;2023-05-20T04:39:04;6.72;;;5.70;;
73168;SDS011;61379;59.732;30.468;2023-05-20T04:41:33;8.70;;;6.50;;
73168;SDS011;61379;59.732;30.468;2023-05-20T04:44:00;6.68;;;6.07;;
73168;SDS011;61379;59.732;30.468;2023-05-20T04:46:28;6.35;;;5.75;;
73168;SDS011;61379;59.732;30.468;2023-05-20T04:48:57;7.50;;;6.80;;
73168;SDS011;61379;59.732;30.468;2023-05-20T04:51:24;7.97;;;6.68;;
73168;SDS011;61379;59.732;30.468;2023-05-20T04:53:50;7.63;;;6.82;;
73168;SDS011;61379;59.732;30.468;2023-05-20T04:56:17;8.65;;;7.75;;
73168;SDS011;61379;59.732;30.468;2023-05-20T04:58:44;8.75;;;7.95;;
73168;SDS011;61379;59.732;30.468;2023-05-20T05:01:10;9.63;;;6.97;;
73168;SDS011;61379;59.732;30.468;2023-05-20T05:03:37;9.98;;;6.47;;
73168;SDS011;61379;59.732;30.468;2023-05-20T05:06:05;8.20;;;6.50;;
73168;SDS011;61379;59.732;30.468;2023-05-20T05:08:32;7.30;;;6.15;;
73168;SDS011;61379;59.732;30.468;2023-05-20T05:10:59;8.30;;;7.22;;
73168;SDS011;61379;59.732;30.468;2023-05-20T05:13:25;9.38;;;6.30;;
73168;SDS011;61379;59.732;30.468;2023-05-20T05:15:58;8.25;;;6.38;;
73168;SDS011;61379;59.732;30.468;2023-05-20T05:18:25;7.60;;;6.07;;
73168;SDS011;61379;59.732;30.468;2023-05-20T05:20:57;8.23;;;5.68;;
73168;SDS011;61379;59.732;30.468;2023-05-20T05:23:25;6.97;;;6.30;;
73168;SDS011;61379;59.732;30.468;2023-05-20T05:25:52;7.70;;;6.03;;
73168;SDS011;61379;59.732;30.468;2023-05-20T05:28:19;7.32;;;6.55;;
73168;SDS011;61379;59.732;30.468;2023-05-20T05:30:45;5.97;;;5.47;;
73168;SDS011;61379;59.732;30.468;2023-05-20T05:33:13;8.95;;;5.88;;
73168;SDS011;61379;59.732;30.468;2023-05-20T05:35:39;7.05;;;6.45;;
73168;SDS011;61379;59.732;30.468;2023-05-20T05:38:06;6.82;;;6.13;;
73168;SDS011;61379;59.732;30.468;2023-05-20T05:40:35;7.13;;;5.78;;
73168;SDS011;61379;59.732;30.468;2023-05-20T05:43:01;7.68;;;5.65;;
73168;SDS011;61379;59.732;30.468;2023-05-20T05:45:28;6.28;;;5.70;;
73168;SDS011;61379;59.732;30.468;2023-05-20T05:47:55;8.55;;;6.07;;
73168;SDS011;61379;59.732;30.468;2023-05-20T05:50:22;6.57;;;5.57;;
73168;SDS011;61379;59.732;30.468;2023-05-20T05:52:48;8.18;;;6.28;;
73168;SDS011;61379;59.732;30.468;2023-05-20T05:55:15;8.13;;;6.30;;
73168;SDS011;61379;59.732;30.468;2023-05-20T05:57:44;7.10;;;6.10;;
73168;SDS011;61379;59.732;30.468;2023-05-20T06:00:11;6.70;;;5.95;;
73168;SDS011;61379;59.732;30.468;2023-05-20T06:02:38;8.30;;;6.35;;
73168;SDS011;61379;59.732;30.468;2023-05-20T06:05:05;8.77;;;6.32;;
73168;SDS011;61379;59.732;30.468;2023-05-20T06:07:32;7.97;;;6.50;;
73168;SDS011;61379;59.732;30.468;2023-05-20T06:09:58;6.55;;;5.97;;
73168;SDS011;61379;59.732;30.468;2023-05-20T06:12:26;6.22;;;5.72;;
73168;SDS011;61379;59.732;30.468;2023-05-20T06:14:54;7.65;;;6.50;;
73168;SDS011;61379;59.732;30.468;2023-05-20T06:17:21;7.93;;;6.25;;
73168;SDS011;61379;59.732;30.468;2023-05-20T06:19:47;8.25;;;6.82;;
73168;SDS011;61379;59.732;30.468;2023-05-20T06:22:14;6.72;;;6.13;;
73168;SDS011;61379;59.732;30.468;2023-05-20T06:24:41;7.72;;;6.70;;
73168;SDS011;61379;59.732;30.468;2023-05-20T06:27:08;7.18;;;6.63;;
73168;SDS011;61379;59.732;30.468;2023-05-20T06:29:34;8.07;;;6.88;;
73168;SDS011;61379;59.732;30.468;2023-05-20T06:32:02;6.93;;;6.32;;
73168;SDS011;61379;59.732;30.468;2023-05-20T06:34:29;7.45;;;6.47;;
73168;SDS011;61379;59.732;30.468;2023-05-20T06:36:56;7.18;;;6.45;;
73168;SDS011;61379;59.732;30.468;2023-05-20T06:39:23;6.13;;;5.55;;
73168;SDS011;61379;59.732;30.468;2023-05-20T06:41:50;6.18;;;5.55;;
73168;SDS011;61379;59.732;30.468;2023-05-20T06:44:17;8.38;;;6.20;;
73168;SDS011;61379;59.732;30.468;2023-05-20T06:46:44;6.88;;;6.20;;
73168;SDS011;61379;59.732;30.468;2023-05-20T06:49:12;6.75;;;6.13;;
73168;SDS011;61379;59.732;30.468;2023-05-20T06:51:39;6.15;;;5.65;;
73168;SDS011;61379;59.732;30.468;2023-05-20T06:54:06;7.43;;;6.75;;
73168;SDS011;61379;59.732;30.468;2023-05-20T06:56:32;8.02;;;7.30;;
73168;SDS011;61379;59.732;30.468;2023-05-20T06:58:59;7.15;;;6.45;;
73168;SDS011;61379;59.732;30.468;2023-05-20T07:01:26;7.38;;;6.68;;
73168;SDS011;61379;59.732;30.468;2023-05-20T07:03:52;7.72;;;6.93;;
73168;SDS011;61379;59.732;30.468;2023-05-20T07:06:21;6.68;;;6.05;;
73168;SDS011;61379;59.732;30.468;2023-05-20T07:08:48;9.25;;;7.05;;
73168;SDS011;61379;59.732;30.468;2023-05-20T07:11:14;10.50;;;6.63;;
73168;SDS011;61379;59.732;30.468;2023-05-20T07:13:41;8.27;;;6.22;;
73168;SDS011;61379;59.732;30.468;2023-05-20T07:16:08;7.13;;;5.97;;
73168;SDS011;61379;59.732;30.468;2023-05-20T07:18:35;6.82;;;5.80;;
73168;SDS011;61379;59.732;30.468;2023-05-20T07:21:01;10.43;;;6.38;;
73168;SDS011;61379;59.732;30.468;2023-05-20T07:23:29;6.72;;;5.95;;
73168;SDS011;61379;59.732;30.468;2023-05-20T07:25:56;6.32;;;5.75;;
73168;SDS011;61379;59.732;30.468;2023-05-20T07:28:23;6.43;;;5.90;;
73168;SDS011;61379;59.732;30.468;2023-05-20T07:30:50;7.63;;;6.55;;
73168;SDS011;61379;59.732;30.468;2023-05-20T07:33:16;9.90;;;5.97;;
73168;SDS011;61379;59.732;30.468;2023-05-20T07:35:43;8.75;;;6.05;;
73168;SDS011;61379;59.732;30.468;2023-05-20T07:38:10;6.80;;;6.13;;
73168;SDS011;61379;59.732;30.468;2023-05-20T07:40:38;6.50;;;5.88;;
73168;SDS011;61379;59.732;30.468;2023-05-20T07:43:06;8.95;;;5.93;;
73168;SDS011;61379;59.732;30.468;2023-05-20T07:45:33;6.47;;;5.70;;
73168;SDS011;61379;59.732;30.468;2023-05-20T07:48:00;7.82;;;6.03;;
73168;SDS011;61379;59.732;30.468;2023-05-20T07:50:27;6.53;;;5.93;;
73168;SDS011;61379;59.732;30.468;2023-05-20T07:52:54;7.93;;;5.80;;
73168;SDS011;61379;59.732;30.468;2023-05-20T07:55:21;6.85;;;5.85;;
73168;SDS011;61379;59.732;30.468;2023-05-20T07:57:49;6.30;;;5.32;;
73168;SDS011;61379;59.732;30.468;2023-05-20T08:00:16;6.57;;;5.93;;
73168;SDS011;61379;59.732;30.468;2023-05-20T08:02:43;6.53;;;6.03;;
73168;SDS011;61379;59.732;30.468;2023-05-20T08:05:10;6.45;;;5.85;;
73168;SDS011;61379;59.732;30.468;2023-05-20T08:07:36;10.30;;;5.95;;
73168;SDS011;61379;59.732;30.468;2023-05-20T08:10:04;6.20;;;5.60;;
73168;SDS011;61379;59.732;30.468;2023-05-20T08:12:30;6.80;;;6.20;;
73168;SDS011;61379;59.732;30.468;2023-05-20T08:14:59;6.63;;;6.03;;
73168;SDS011;61379;59.732;30.468;2023-05-20T08:17:25;9.48;;;5.95;;
73168;SDS011;61379;59.732;30.468;2023-05-20T08:19:52;6.72;;;6.13;;
73168;SDS011;61379;59.732;30.468;2023-05-20T08:22:19;6.28;;;5.68;;
73168;SDS011;61379;59.732;30.468;2023-05-20T08:24:46;7.00;;;6.50;;
73168;SDS011;61379;59.732;30.468;2023-05-20T08:27:12;8.57;;;6.60;;
73168;SDS011;61379;59.732;30.468;2023-05-20T08:29:39;11.30;;;6.75;;
73168;SDS011;61379;59.732;30.468;2023-05-20T08:32:08;14.23;;;6.25;;
73168;SDS011;61379;59.732;30.468;2023-05-20T08:34:34;7.38;;;6.70;;
73168;SDS011;61379;59.732;30.468;2023-05-20T08:37:02;11.57;;;7.57;;
73168;SDS011;61379;59.732;30.468;2023-05-20T08:39:28;6.65;;;6.13;;
73168;SDS011;61379;59.732;30.468;2023-05-20T08:41:56;7.10;;;6.47;;
73168;SDS011;61379;59.732;30.468;2023-05-20T08:44:23;11.23;;;6.22;;
73168;SDS011;61379;59.732;30.468;2023-05-20T08:46:51;10.77;;;8.05;;
73168;SDS011;61379;59.732;30.468;2023-05-20T08:49:19;9.23;;;7.03;;
73168;SDS011;61379;59.732;30.468;2023-05-20T08:51:46;7.13;;;6.53;;
73168;SDS011;61379;59.732;30.468;2023-05-20T08:54:13;12.10;;;6.78;;
73168;SDS011;61379;59.732;30.468;2023-05-20T08:56:41;6.45;;;5.85;;
73168;SDS011;61379;59.732;30.468;2023-05-20T08:59:09;7.00;;;6.30;;
73168;SDS011;61379;59.732;30.468;2023-05-20T09:01:37;7.35;;;5.97;;
73168;SDS011;61379;59.732;30.468;2023-05-20T09:04:05;10.02;;;6.70;;
73168;SDS011;61379;59.732;30.468;2023-05-20T09:06:40;7.38;;;6.63;;
73168;SDS011;61379;59.732;30.468;2023-05-20T09:09:09;12.45;;;7.20;;
73168;SDS011;61379;59.732;30.468;2023-05-20T09:11:36;7.05;;;6.35;;
73168;SDS011;61379;59.732;30.468;2023-05-20T09:14:02;8.45;;;7.50;;
73168;SDS011;61379;59.732;30.468;2023-05-20T09:16:29;7.47;;;6.85;;
73168;SDS011;61379;59.732;30.468;2023-05-20T09:18:56;7.38;;;6.88;;
73168;SDS011;61379;59.732;30.468;2023-05-20T09:21:24;7.00;;;6.50;;
73168;SDS011;61379;59.732;30.468;2023-05-20T09:23:53;8.63;;;7.50;;
73168;SDS011;61379;59.732;30.468;2023-05-20T09:26:21;7.45;;;6.75;;
73168;SDS011;61379;59.732;30.468;2023-05-20T09:28:49;7.43;;;6.82;;
73168;SDS011;61379;59.732;30.468;2023-05-20T09:31:15;8.45;;;6.65;;
73168;SDS011;61379;59.732;30.468;2023-05-20T09:33:42;8.45;;;6.47;;
73168;SDS011;61379;59.732;30.468;2023-05-20T09:36:09;7.78;;;6.60;;
73168;SDS011;61379;59.732;30.468;2023-05-20T09:38:36;7.47;;;6.78;;
73168;SDS011;61379;59.732;30.468;2023-05-20T09:41:06;7.40;;;6.38;;
73168;SDS011;61379;59.732;30.468;2023-05-20T09:43:33;9.52;;;6.70;;
73168;SDS011;61379;59.732;30.468;2023-05-20T09:46:00;9.00;;;7.10;;
73168;SDS011;61379;59.732;30.468;2023-05-20T09:48:27;11.07;;;6.50;;
73168;SDS011;61379;59.732;30.468;2023-05-20T09:50:55;8.93;;;8.15;;
73168;SDS011;61379;59.732;30.468;2023-05-20T09:53:22;7.90;;;7.35;;
73168;SDS011;61379;59.732;30.468;2023-05-20T09:55:52;8.20;;;7.40;;
73168;SDS011;61379;59.732;30.468;2023-05-20T09:58:20;8.50;;;7.72;;
73168;SDS011;61379;59.732;30.468;2023-05-20T10:00:48;7.93;;;7.18;;
73168;SDS011;61379;59.732;30.468;2023-05-20T10:03:14;10.45;;;8.18;;
73168;SDS011;61379;59.732;30.468;2023-05-20T10:05:43;7.28;;;6.68;;
73168;SDS011;61379;59.732;30.468;2023-05-20T10:08:24;8.38;;;7.57;;
73168;SDS011;61379;59.732;30.468;2023-05-20T10:10:57;8.10;;;7.45;;
73168;SDS011;61379;59.732;30.468;2023-05-20T10:13:34;8.23;;;7.60;;
73168;SDS011;61379;59.732;30.468;2023-05-20T10:16:06;8.40;;;7.75;;
73168;SDS011;61379;59.732;30.468;2023-05-20T10:18:39;7.15;;;6.40;;
73168;SDS011;61379;59.732;30.468;2023-05-20T10:21:13;8.25;;;7.53;;
73168;SDS011;61379;59.732;30.468;2023-05-20T10:23:40;8.18;;;7.07;;
73168;SDS011;61379;59.732;30.468;2023-05-20T10:26:07;8.63;;;7.45;;
73168;SDS011;61379;59.732;30.468;2023-05-20T10:28:36;8.45;;;7.85;;
73168;SDS011;61379;59.732;30.468;2023-05-20T10:31:13;7.70;;;7.00;;
73168;SDS011;61379;59.732;30.468;2023-05-20T10:33:41;10.57;;;7.38;;
73168;SDS011;61379;59.732;30.468;2023-05-20T10:36:08;8.68;;;6.95;;
73168;SDS011;61379;59.732;30.468;2023-05-20T10:38:35;7.68;;;7.03;;
73168;SDS011;61379;59.732;30.468;2023-05-20T10:41:08;8.48;;;7.75;;
73168;SDS011;61379;59.732;30.468;2023-05-20T10:43:37;7.47;;;6.85;;
73168;SDS011;61379;59.732;30.468;2023-05-20T10:46:03;7.93;;;7.22;;
73168;SDS011;61379;59.732;30.468;2023-05-20T10:48:31;8.05;;;7.35;;
73168;SDS011;61379;59.732;30.468;2023-05-20T10:50:59;8.10;;;7.32;;
73168;SDS011;61379;59.732;30.468;2023-05-20T10:53:29;7.82;;;7.22;;
73168;SDS011;61379;59.732;30.468;2023-05-20T10:55:56;7.35;;;6.75;;
73168;SDS011;61379;59.732;30.468;2023-05-20T10:58:23;8.00;;;7.20;;
73168;SDS011;61379;59.732;30.468;2023-05-20T11:00:52;8.50;;;7.80;;
73168;SDS011;61379;59.732;30.468;2023-05-20T11:05:45;8.77;;;8.05;;
73168;SDS011;61379;59.732;30.468;2023-05-20T11:08:13;8.52;;;7.93;;
73168;SDS011;61379;59.732;30.468;2023-05-20T11:10:40;10.10;;;9.15;;
73168;SDS011;61379;59.732;30.468;2023-05-20T11:13:07;10.20;;;9.18;;
73168;SDS011;61379;59.732;30.468;2023-05-20T11:15:34;9.90;;;8.93;;
73168;SDS011;61379;59.732;30.468;2023-05-20T11:18:03;9.20;;;8.25;;
73168;SDS011;61379;59.732;30.468;2023-05-20T11:20:30;9.93;;;8.52;;
73168;SDS011;61379;59.732;30.468;2023-05-20T11:22:59;9.32;;;8.43;;
73168;SDS011;61379;59.732;30.468;2023-05-20T11:25:26;9.02;;;8.27;;
73168;SDS011;61379;59.732;30.468;2023-05-20T11:27:53;10.13;;;7.88;;
73168;SDS011;61379;59.732;30.468;2023-05-20T11:30:20;8.90;;;8.07;;
73168;SDS011;61379;59.732;30.468;2023-05-20T11:32:57;8.27;;;7.57;;
73168;SDS011;61379;59.732;30.468;2023-05-20T11:35:26;9.02;;;8.10;;
73168;SDS011;61379;59.732;30.468;2023-05-20T11:37:55;10.75;;;9.60;;
73168;SDS011;61379;59.732;30.468;2023-05-20T11:40:25;11.20;;;9.57;;
73168;SDS011;61379;59.732;30.468;2023-05-20T11:42:52;9.75;;;8.48;;
73168;SDS011;61379;59.732;30.468;2023-05-20T11:45:19;9.73;;;8.82;;
73168;SDS011;61379;59.732;30.468;2023-05-20T11:47:46;10.90;;;9.80;;
73168;SDS011;61379;59.732;30.468;2023-05-20T11:50:23;10.38;;;9.13;;
73168;SDS011;61379;59.732;30.468;2023-05-20T11:52:55;9.15;;;8.27;;
73168;SDS011;61379;59.732;30.468;2023-05-20T11:55:22;9.18;;;7.78;;
73168;SDS011;61379;59.732;30.468;2023-05-20T11:57:49;8.57;;;7.68;;
73168;SDS011;61379;59.732;30.468;2023-05-20T12:00:16;9.57;;;8.68;;
73168;SDS011;61379;59.732;30.468;2023-05-20T12:02:43;9.50;;;8.43;;
73168;SDS011;61379;59.732;30.468;2023-05-20T12:05:10;9.88;;;8.90;;
73168;SDS011;61379;59.732;30.468;2023-05-20T12:07:37;10.57;;;9.43;;
73168;SDS011;61379;59.732;30.468;2023-05-20T12:10:06;9.10;;;8.20;;
73168;SDS011;61379;59.732;30.468;2023-05-20T12:12:33;8.60;;;7.80;;
73168;SDS011;61379;59.732;30.468;2023-05-20T12:15:01;10.93;;;8.80;;
73168;SDS011;61379;59.732;30.468;2023-05-20T12:17:34;9.00;;;8.18;;
73168;SDS011;61379;59.732;30.468;2023-05-20T12:20:09;10.13;;;9.23;;
73168;SDS011;61379;59.732;30.468;2023-05-20T12:22:36;8.55;;;7.85;;
73168;SDS011;61379;59.732;30.468;2023-05-20T12:25:03;10.77;;;8.73;;
73168;SDS011;61379;59.732;30.468;2023-05-20T12:27:32;9.32;;;7.78;;
73168;SDS011;61379;59.732;30.468;2023-05-20T12:29:59;8.90;;;8.05;;
73168;SDS011;61379;59.732;30.468;2023-05-20T12:32:29;8.70;;;7.90;;
73168;SDS011;61379;59.732;30.468;2023-05-20T12:34:56;10.57;;;8.50;;
73168;SDS011;61379;59.732;30.468;2023-05-20T12:37:23;8.45;;;7.75;;
73168;SDS011;61379;59.732;30.468;2023-05-20T12:39:50;9.02;;;8.15;;
73168;SDS011;61379;59.732;30.468;2023-05-20T12:42:17;8.90;;;8.10;;
73168;SDS011;61379;59.732;30.468;2023-05-20T12:44:45;9.70;;;8.77;;
73168;SDS011;61379;59.732;30.468;2023-05-20T12:47:11;9.23;;;8.38;;
73168;SDS011;61379;59.732;30.468;2023-05-20T12:49:38;12.10;;;8.32;;
73168;SDS011;61379;59.732;30.468;2023-05-20T12:52:05;9.55;;;8.70;;
73168;SDS011;61379;59.732;30.468;2023-05-20T12:54:32;10.93;;;8.90;;
73168;SDS011;61379;59.732;30.468;2023-05-20T12:56:59;9.25;;;8.40;;
73168;SDS011;61379;59.732;30.468;2023-05-20T12:59:25;8.88;;;7.97;;
73168;SDS011;61379;59.732;30.468;2023-05-20T13:01:54;11.68;;;7.50;;
73168;SDS011;61379;59.732;30.468;2023-05-20T13:04:20;9.32;;;8.52;;
73168;SDS011;61379;59.732;30.468;2023-05-20T13:06:47;10.00;;;7.82;;
73168;SDS011;61379;59.732;30.468;2023-05-20T13:09:14;13.27;;;9.38;;
73168;SDS011;61379;59.732;30.468;2023-05-20T13:11:41;8.10;;;7.35;;
73168;SDS011;61379;59.732;30.468;2023-05-20T13:14:08;8.25;;;7.55;;
73168;SDS011;61379;59.732;30.468;2023-05-20T13:16:34;12.25;;;7.93;;
73168;SDS011;61379;59.732;30.468;2023-05-20T13:19:03;15.45;;;8.50;;
73168;SDS011;61379;59.732;30.468;2023-05-20T13:21:29;8.85;;;7.97;;
73168;SDS011;61379;59.732;30.468;2023-05-20T13:23:57;9.70;;;8.35;;
73168;SDS011;61379;59.732;30.468;2023-05-20T13:26:25;10.63;;;8.45;;
73168;SDS011;61379;59.732;30.468;2023-05-20T13:28:52;10.75;;;8.55;;
73168;SDS011;61379;59.732;30.468;2023-05-20T13:31:18;9.50;;;8.30;;
73168;SDS011;61379;59.732;30.468;2023-05-20T13:33:45;9.05;;;8.35;;
73168;SDS011;61379;59.732;30.468;2023-05-20T13:36:13;10.68;;;7.32;;
73168;SDS011;61379;59.732;30.468;2023-05-20T13:38:40;13.43;;;8.02;;
73168;SDS011;61379;59.732;30.468;2023-05-20T13:41:07;10.75;;;7.97;;
73168;SDS011;61379;59.732;30.468;2023-05-20T13:43:33;8.50;;;7.32;;
73168;SDS011;61379;59.732;30.468;2023-05-20T13:46:00;8.68;;;7.57;;
73168;SDS011;61379;59.732;30.468;2023-05-20T13:48:27;8.55;;;7.85;;
73168;SDS011;61379;59.732;30.468;2023-05-20T13:50:54;8.75;;;7.90;;
73168;SDS011;61379;59.732;30.468;2023-05-20T13:53:22;8.07;;;7.45;;
73168;SDS011;61379;59.732;30.468;2023-05-20T13:55:49;9.65;;;7.03;;
73168;SDS011;61379;59.732;30.468;2023-05-20T13:58:16;8.32;;;7.38;;
73168;SDS011;61379;59.732;30.468;2023-05-20T14:00:42;10.93;;;7.03;;
73168;SDS011;61379;59.732;30.468;2023-05-20T14:03:09;9.32;;;7.03;;
73168;SDS011;61379;59.732;30.468;2023-05-20T14:05:36;8.68;;;7.15;;
73168;SDS011;61379;59.732;30.468;2023-05-20T14:08:03;9.45;;;7.68;;
73168;SDS011;61379;59.732;30.468;2023-05-20T14:10:31;9.00;;;6.78;;
73168;SDS011;61379;59.732;30.468;2023-05-20T14:12:58;7.53;;;6.93;;
73168;SDS011;61379;59.732;30.468;2023-05-20T14:15:26;9.30;;;6.93;;
73168;SDS011;61379;59.732;30.468;2023-05-20T14:17:55;8.43;;;7.38;;
73168;SDS011;61379;59.732;30.468;2023-05-20T14:20:22;7.50;;;6.90;;
73168;SDS011;61379;59.732;30.468;2023-05-20T14:22:48;10.23;;;7.70;;
73168;SDS011;61379;59.732;30.468;2023-05-20T14:25:15;7.38;;;6.75;;
73168;SDS011;61379;59.732;30.468;2023-05-20T14:27:43;10.05;;;7.05;;
73168;SDS011;61379;59.732;30.468;2023-05-20T14:30:10;8.70;;;7.82;;
73168;SDS011;61379;59.732;30.468;2023-05-20T14:32:37;7.57;;;6.90;;
73168;SDS011;61379;59.732;30.468;2023-05-20T14:35:04;9.85;;;8.20;;
73168;SDS011;61379;59.732;30.468;2023-05-20T14:37:31;7.32;;;6.80;;
73168;SDS011;61379;59.732;30.468;2023-05-20T14:39:58;7.40;;;6.82;;